sensor_id;sensor_type;location;lat;lon;timestamp;temperature;humidity
17437;DHT22;73152;52.198;5.422;2023-11-19T00:00:33;20.70;55.80
17437;DHT22;73152;52.198;5.422;2023-11-19T00:03:02;20.70;55.60
17437;DHT22;73152;52.198;5.422;2023-11-19T00:05:31;20.70;55.50
17437;DHT22;73152;52.198;5.422;2023-11-19T00:08:00;20.70;55.70
17437;DHT22;73152;52.198;5.422;2023-11-19T00:10:32;20.70;55.80
17437;DHT22;73152;52.198;5.422;2023-11-19T00:13:01;20.60;55.90
17437;DHT22;73152;52.198;5.422;2023-11-19T00:15:30;20.70;55.80
17437;DHT22;73152;52.198;5.422;2023-11-19T00:17:59;20.70;55.60
17437;DHT22;73152;52.198;5.422;2023-11-19T00:20:30;20.60;55.80
17437;DHT22;73152;52.198;5.422;2023-11-19T00:22:59;20.60;55.70
17437;DHT22;73152;52.198;5.422;2023-11-19T00:25:28;20.60;55.70
17437;DHT22;73152;52.198;5.422;2023-11-19T00:27:59;20.70;55.50
17437;DHT22;73152;52.198;5.422;2023-11-19T00:30:28;20.70;55.50
17437;DHT22;73152;52.198;5.422;2023-11-19T00:32:57;20.70;55.40
17437;DHT22;73152;52.198;5.422;2023-11-19T00:35:26;20.70;55.20
17437;DHT22;73152;52.198;5.422;2023-11-19T00:37:57;20.70;55.10
17437;DHT22;73152;52.198;5.422;2023-11-19T00:40:26;20.70;55.20
17437;DHT22;73152;52.198;5.422;2023-11-19T00:42:55;20.70;55.50
17437;DHT22;73152;52.198;5.422;2023-11-19T00:45:26;20.70;55.40
17437;DHT22;73152;52.198;5.422;2023-11-19T00:47:55;20.70;55.30
17437;DHT22;73152;52.198;5.422;2023-11-19T00:50:25;20.70;55.40
17437;DHT22;73152;52.198;5.422;2023-11-19T00:52:55;20.70;55.20
17437;DHT22;73152;52.198;5.422;2023-11-19T00:55:23;20.70;55.30
17437;DHT22;73152;52.198;5.422;2023-11-19T00:57:53;20.70;55.40
17437;DHT22;73152;52.198;5.422;2023-11-19T01:00:22;20.70;55.30
17437;DHT22;73152;52.198;5.422;2023-11-19T01:02:55;20.70;55.20
17437;DHT22;73152;52.198;5.422;2023-11-19T01:05:25;20.70;55.20
17437;DHT22;73152;52.198;5.422;2023-11-19T01:07:54;20.70;55.20
17437;DHT22;73152;52.198;5.422;2023-11-19T01:10:24;20.70;55.40
17437;DHT22;73152;52.198;5.422;2023-11-19T01:12:54;20.70;55.50
17437;DHT22;73152;52.198;5.422;2023-11-19T01:15:23;20.70;55.50
17437;DHT22;73152;52.198;5.422;2023-11-19T01:17:55;20.70;55.40
17437;DHT22;73152;52.198;5.422;2023-11-19T01:20:24;20.70;55.50
17437;DHT22;73152;52.198;5.422;2023-11-19T01:22:52;20.70;55.50
17437;DHT22;73152;52.198;5.422;2023-11-19T01:25:22;20.70;55.60
17437;DHT22;73152;52.198;5.422;2023-11-19T01:27:51;20.70;55.50
17437;DHT22;73152;52.198;5.422;2023-11-19T01:30:19;20.70;55.50
17437;DHT22;73152;52.198;5.422;2023-11-19T01:32:48;20.70;55.60
17437;DHT22;73152;52.198;5.422;2023-11-19T01:35:20;20.70;55.60
17437;DHT22;73152;52.198;5.422;2023-11-19T01:37:51;20.70;55.70
17437;DHT22;73152;52.198;5.422;2023-11-19T01:40:20;20.60;55.70
17437;DHT22;73152;52.198;5.422;2023-11-19T01:42:49;20.70;55.50
17437;DHT22;73152;52.198;5.422;2023-11-19T01:45:27;20.70;55.50
17437;DHT22;73152;52.198;5.422;2023-11-19T01:47:59;20.70;55.70
17437;DHT22;73152;52.198;5.422;2023-11-19T01:50:33;20.70;55.50
17437;DHT22;73152;52.198;5.422;2023-11-19T01:53:02;20.70;55.50
17437;DHT22;73152;52.198;5.422;2023-11-19T01:55:31;20.70;55.40
17437;DHT22;73152;52.198;5.422;2023-11-19T01:58:01;20.70;55.40
17437;DHT22;73152;52.198;5.422;2023-11-19T02:00:31;20.70;55.60
17437;DHT22;73152;52.198;5.422;2023-11-19T02:03:02;20.60;55.60
17437;DHT22;73152;52.198;5.422;2023-11-19T02:05:35;20.70;55.60
17437;DHT22;73152;52.198;5.422;2023-11-19T02:08:05;20.60;55.60
17437;DHT22;73152;52.198;5.422;2023-11-19T02:10:34;20.60;55.60
17437;DHT22;73152;52.198;5.422;2023-11-19T02:13:03;20.70;55.60
17437;DHT22;73152;52.198;5.422;2023-11-19T02:15:33;20.70;55.40
17437;DHT22;73152;52.198;5.422;2023-11-19T02:18:22;20.70;55.50
17437;DHT22;73152;52.198;5.422;2023-11-19T02:20:56;20.70;55.50
17437;DHT22;73152;52.198;5.422;2023-11-19T02:23:27;20.60;55.50
17437;DHT22;73152;52.198;5.422;2023-11-19T02:26:05;20.60;55.50
17437;DHT22;73152;52.198;5.422;2023-11-19T02:28:45;20.70;55.40
17437;DHT22;73152;52.198;5.422;2023-11-19T02:31:14;20.60;55.30
17437;DHT22;73152;52.198;5.422;2023-11-19T02:33:43;20.60;55.30
17437;DHT22;73152;52.198;5.422;2023-11-19T02:36:11;20.70;55.30
17437;DHT22;73152;52.198;5.422;2023-11-19T02:38:40;20.70;55.30
17437;DHT22;73152;52.198;5.422;2023-11-19T02:41:09;20.60;55.40
17437;DHT22;73152;52.198;5.422;2023-11-19T02:43:38;20.60;55.40
17437;DHT22;73152;52.198;5.422;2023-11-19T02:46:10;20.60;55.40
17437;DHT22;73152;52.198;5.422;2023-11-19T02:48:39;20.60;55.30
17437;DHT22;73152;52.198;5.422;2023-11-19T02:51:08;20.60;55.20
17437;DHT22;73152;52.198;5.422;2023-11-19T02:53:38;20.60;55.20
17437;DHT22;73152;52.198;5.422;2023-11-19T02:56:10;20.60;55.20
17437;DHT22;73152;52.198;5.422;2023-11-19T02:58:45;20.60;55.20
17437;DHT22;73152;52.198;5.422;2023-11-19T03:01:21;20.60;55.10
17437;DHT22;73152;52.198;5.422;2023-11-19T03:03:55;20.60;55.10
17437;DHT22;73152;52.198;5.422;2023-11-19T03:06:24;20.60;55.00
17437;DHT22;73152;52.198;5.422;2023-11-19T03:08:55;20.60;55.00
17437;DHT22;73152;52.198;5.422;2023-11-19T03:11:24;20.60;55.00
17437;DHT22;73152;52.198;5.422;2023-11-19T03:13:53;20.60;55.00
17437;DHT22;73152;52.198;5.422;2023-11-19T03:16:24;20.60;55.00
17437;DHT22;73152;52.198;5.422;2023-11-19T03:18:53;20.70;54.90
17437;DHT22;73152;52.198;5.422;2023-11-19T03:21:27;20.70;54.90
17437;DHT22;73152;52.198;5.422;2023-11-19T03:23:57;20.60;54.90
17437;DHT22;73152;52.198;5.422;2023-11-19T03:26:26;20.60;54.90
17437;DHT22;73152;52.198;5.422;2023-11-19T03:28:55;20.60;54.90
17437;DHT22;73152;52.198;5.422;2023-11-19T03:31:27;20.60;54.80
17437;DHT22;73152;52.198;5.422;2023-11-19T03:33:56;20.60;54.80
17437;DHT22;73152;52.198;5.422;2023-11-19T03:36:25;20.60;54.80
17437;DHT22;73152;52.198;5.422;2023-11-19T03:39:01;20.60;54.70
17437;DHT22;73152;52.198;5.422;2023-11-19T03:41:31;20.60;54.80
17437;DHT22;73152;52.198;5.422;2023-11-19T03:44:00;20.60;54.80
17437;DHT22;73152;52.198;5.422;2023-11-19T03:46:31;20.60;54.80
17437;DHT22;73152;52.198;5.422;2023-11-19T03:49:00;20.60;54.80
17437;DHT22;73152;52.198;5.422;2023-11-19T03:51:29;20.60;54.70
17437;DHT22;73152;52.198;5.422;2023-11-19T03:53:59;20.60;54.70
17437;DHT22;73152;52.198;5.422;2023-11-19T03:56:28;20.60;54.60
17437;DHT22;73152;52.198;5.422;2023-11-19T03:58:58;20.60;54.60
17437;DHT22;73152;52.198;5.422;2023-11-19T04:01:27;20.60;54.60
17437;DHT22;73152;52.198;5.422;2023-11-19T04:03:58;20.60;54.70
17437;DHT22;73152;52.198;5.422;2023-11-19T04:06:28;20.60;54.70
17437;DHT22;73152;52.198;5.422;2023-11-19T04:08:57;20.60;54.60
17437;DHT22;73152;52.198;5.422;2023-11-19T04:11:26;20.60;54.60
17437;DHT22;73152;52.198;5.422;2023-11-19T04:13:55;20.60;54.60
17437;DHT22;73152;52.198;5.422;2023-11-19T04:16:26;20.60;54.60
17437;DHT22;73152;52.198;5.422;2023-11-19T04:18:59;20.50;54.60
17437;DHT22;73152;52.198;5.422;2023-11-19T04:21:27;20.50;54.60
17437;DHT22;73152;52.198;5.422;2023-11-19T04:23:56;20.50;54.50
17437;DHT22;73152;52.198;5.422;2023-11-19T04:26:26;20.60;54.60
17437;DHT22;73152;52.198;5.422;2023-11-19T04:28:56;20.60;54.50
17437;DHT22;73152;52.198;5.422;2023-11-19T04:31:29;20.60;54.50
17437;DHT22;73152;52.198;5.422;2023-11-19T04:34:01;20.60;54.40
17437;DHT22;73152;52.198;5.422;2023-11-19T04:36:30;20.60;54.40
17437;DHT22;73152;52.198;5.422;2023-11-19T04:38:59;20.60;54.40
17437;DHT22;73152;52.198;5.422;2023-11-19T04:41:28;20.60;54.50
17437;DHT22;73152;52.198;5.422;2023-11-19T04:43:57;20.60;54.40
17437;DHT22;73152;52.198;5.422;2023-11-19T04:46:26;20.60;54.40
17437;DHT22;73152;52.198;5.422;2023-11-19T04:48:55;20.60;54.40
17437;DHT22;73152;52.198;5.422;2023-11-19T04:51:26;20.60;54.40
17437;DHT22;73152;52.198;5.422;2023-11-19T04:53:55;20.60;54.40
17437;DHT22;73152;52.198;5.422;2023-11-19T04:56:24;20.60;54.40
17437;DHT22;73152;52.198;5.422;2023-11-19T04:58:53;20.50;54.40
17437;DHT22;73152;52.198;5.422;2023-11-19T05:01:22;20.60;54.40
17437;DHT22;73152;52.198;5.422;2023-11-19T05:03:51;20.50;54.40
17437;DHT22;73152;52.198;5.422;2023-11-19T05:06:19;20.50;54.40
17437;DHT22;73152;52.198;5.422;2023-11-19T05:08:51;20.50;54.40
17437;DHT22;73152;52.198;5.422;2023-11-19T05:11:20;20.60;54.40
17437;DHT22;73152;52.198;5.422;2023-11-19T05:13:49;20.60;54.30
17437;DHT22;73152;52.198;5.422;2023-11-19T05:16:18;20.60;54.20
17437;DHT22;73152;52.198;5.422;2023-11-19T05:18:47;20.60;54.30
17437;DHT22;73152;52.198;5.422;2023-11-19T05:21:16;20.60;54.30
17437;DHT22;73152;52.198;5.422;2023-11-19T05:23:45;20.60;54.30
17437;DHT22;73152;52.198;5.422;2023-11-19T05:26:21;20.60;54.30
17437;DHT22;73152;52.198;5.422;2023-11-19T05:28:52;20.50;54.20
17437;DHT22;73152;52.198;5.422;2023-11-19T05:31:21;20.60;54.10
17437;DHT22;73152;52.198;5.422;2023-11-19T05:33:50;20.60;54.10
17437;DHT22;73152;52.198;5.422;2023-11-19T05:36:18;20.60;54.20
17437;DHT22;73152;52.198;5.422;2023-11-19T05:38:47;20.60;54.20
17437;DHT22;73152;52.198;5.422;2023-11-19T05:41:16;20.60;54.20
17437;DHT22;73152;52.198;5.422;2023-11-19T05:43:47;20.60;54.00
17437;DHT22;73152;52.198;5.422;2023-11-19T05:46:17;20.60;54.10
17437;DHT22;73152;52.198;5.422;2023-11-19T05:48:46;20.60;54.00
17437;DHT22;73152;52.198;5.422;2023-11-19T05:51:15;20.60;54.00
17437;DHT22;73152;52.198;5.422;2023-11-19T05:53:44;20.50;54.10
17437;DHT22;73152;52.198;5.422;2023-11-19T05:56:15;20.60;54.00
17437;DHT22;73152;52.198;5.422;2023-11-19T05:58:49;20.50;54.00
17437;DHT22;73152;52.198;5.422;2023-11-19T06:01:18;20.50;54.00
17437;DHT22;73152;52.198;5.422;2023-11-19T06:03:47;20.50;54.00
17437;DHT22;73152;52.198;5.422;2023-11-19T06:06:16;20.60;54.10
17437;DHT22;73152;52.198;5.422;2023-11-19T06:08:45;20.60;54.10
17437;DHT22;73152;52.198;5.422;2023-11-19T06:11:15;20.60;54.00
17437;DHT22;73152;52.198;5.422;2023-11-19T06:13:45;20.60;54.00
17437;DHT22;73152;52.198;5.422;2023-11-19T06:16:17;20.60;53.90
17437;DHT22;73152;52.198;5.422;2023-11-19T06:18:46;20.50;53.90
17437;DHT22;73152;52.198;5.422;2023-11-19T06:21:15;20.50;53.90
17437;DHT22;73152;52.198;5.422;2023-11-19T06:23:44;20.50;54.00
17437;DHT22;73152;52.198;5.422;2023-11-19T06:26:13;20.60;54.00
17437;DHT22;73152;52.198;5.422;2023-11-19T06:28:42;20.50;53.90
17437;DHT22;73152;52.198;5.422;2023-11-19T06:31:14;20.50;53.90
17437;DHT22;73152;52.198;5.422;2023-11-19T06:33:44;20.50;53.90
17437;DHT22;73152;52.198;5.422;2023-11-19T06:36:14;20.50;53.90
17437;DHT22;73152;52.198;5.422;2023-11-19T06:38:44;20.50;53.90
17437;DHT22;73152;52.198;5.422;2023-11-19T06:41:13;20.50;53.90
17437;DHT22;73152;52.198;5.422;2023-11-19T06:43:42;20.60;54.00
17437;DHT22;73152;52.198;5.422;2023-11-19T06:46:18;20.50;53.90
17437;DHT22;73152;52.198;5.422;2023-11-19T06:48:47;20.50;53.90
17437;DHT22;73152;52.198;5.422;2023-11-19T06:51:16;20.50;54.00
17437;DHT22;73152;52.198;5.422;2023-11-19T06:53:45;20.50;53.90
17437;DHT22;73152;52.198;5.422;2023-11-19T06:56:21;20.50;53.90
17437;DHT22;73152;52.198;5.422;2023-11-19T06:58:51;20.50;53.90
17437;DHT22;73152;52.198;5.422;2023-11-19T07:01:23;20.50;53.90
17437;DHT22;73152;52.198;5.422;2023-11-19T07:03:52;20.50;53.80
17437;DHT22;73152;52.198;5.422;2023-11-19T07:06:23;20.50;53.80
17437;DHT22;73152;52.198;5.422;2023-11-19T07:08:52;20.50;53.90
17437;DHT22;73152;52.198;5.422;2023-11-19T07:11:21;20.50;53.90
17437;DHT22;73152;52.198;5.422;2023-11-19T07:13:50;20.50;53.80
17437;DHT22;73152;52.198;5.422;2023-11-19T07:16:19;20.50;53.80
17437;DHT22;73152;52.198;5.422;2023-11-19T07:18:51;20.50;53.70
17437;DHT22;73152;52.198;5.422;2023-11-19T07:21:21;20.50;53.60
17437;DHT22;73152;52.198;5.422;2023-11-19T07:23:49;20.50;53.70
17437;DHT22;73152;52.198;5.422;2023-11-19T07:26:18;20.50;53.70
17437;DHT22;73152;52.198;5.422;2023-11-19T07:28:47;20.50;53.70
17437;DHT22;73152;52.198;5.422;2023-11-19T07:31:17;20.50;53.70
17437;DHT22;73152;52.198;5.422;2023-11-19T07:33:46;20.50;53.70
17437;DHT22;73152;52.198;5.422;2023-11-19T07:36:18;20.50;53.70
17437;DHT22;73152;52.198;5.422;2023-11-19T07:38:47;20.60;53.70
17437;DHT22;73152;52.198;5.422;2023-11-19T07:41:16;20.60;53.70
17437;DHT22;73152;52.198;5.422;2023-11-19T07:43:45;20.50;53.60
17437;DHT22;73152;52.198;5.422;2023-11-19T07:46:16;20.60;53.70
17437;DHT22;73152;52.198;5.422;2023-11-19T07:48:45;20.60;53.70
17437;DHT22;73152;52.198;5.422;2023-11-19T07:51:15;20.60;53.50
17437;DHT22;73152;52.198;5.422;2023-11-19T07:53:47;20.60;53.40
17437;DHT22;73152;52.198;5.422;2023-11-19T07:56:16;20.60;53.50
17437;DHT22;73152;52.198;5.422;2023-11-19T07:58:44;20.60;53.60
17437;DHT22;73152;52.198;5.422;2023-11-19T08:01:15;20.60;53.40
17437;DHT22;73152;52.198;5.422;2023-11-19T08:03:44;20.60;53.50
17437;DHT22;73152;52.198;5.422;2023-11-19T08:06:13;20.60;53.40
17437;DHT22;73152;52.198;5.422;2023-11-19T08:08:45;20.60;53.30
17437;DHT22;73152;52.198;5.422;2023-11-19T08:11:14;20.60;53.30
17437;DHT22;73152;52.198;5.422;2023-11-19T08:13:45;20.70;53.30
17437;DHT22;73152;52.198;5.422;2023-11-19T08:16:14;20.60;53.30
17437;DHT22;73152;52.198;5.422;2023-11-19T08:18:43;20.70;53.30
17437;DHT22;73152;52.198;5.422;2023-11-19T08:21:12;20.70;53.20
17437;DHT22;73152;52.198;5.422;2023-11-19T08:23:44;20.70;53.30
17437;DHT22;73152;52.198;5.422;2023-11-19T08:26:14;20.70;53.20
17437;DHT22;73152;52.198;5.422;2023-11-19T08:28:43;20.70;53.30
17437;DHT22;73152;52.198;5.422;2023-11-19T08:31:13;20.80;53.20
17437;DHT22;73152;52.198;5.422;2023-11-19T08:33:42;20.80;53.20
17437;DHT22;73152;52.198;5.422;2023-11-19T08:36:15;20.80;53.10
17437;DHT22;73152;52.198;5.422;2023-11-19T08:38:47;20.90;53.10
17437;DHT22;73152;52.198;5.422;2023-11-19T08:41:17;20.80;53.10
17437;DHT22;73152;52.198;5.422;2023-11-19T08:43:46;20.90;53.00
17437;DHT22;73152;52.198;5.422;2023-11-19T08:46:15;20.80;53.00
17437;DHT22;73152;52.198;5.422;2023-11-19T08:48:44;20.80;53.10
17437;DHT22;73152;52.198;5.422;2023-11-19T08:51:13;20.80;53.20
17437;DHT22;73152;52.198;5.422;2023-11-19T08:53:42;20.80;53.10
17437;DHT22;73152;52.198;5.422;2023-11-19T08:56:13;20.80;53.10
17437;DHT22;73152;52.198;5.422;2023-11-19T08:58:42;20.80;53.00
17437;DHT22;73152;52.198;5.422;2023-11-19T09:01:11;20.80;53.00
17437;DHT22;73152;52.198;5.422;2023-11-19T09:03:40;20.80;53.10
17437;DHT22;73152;52.198;5.422;2023-11-19T09:06:09;20.80;53.10
17437;DHT22;73152;52.198;5.422;2023-11-19T09:08:38;20.90;52.90
17437;DHT22;73152;52.198;5.422;2023-11-19T09:11:07;20.90;53.00
17437;DHT22;73152;52.198;5.422;2023-11-19T09:13:40;20.80;53.00
17437;DHT22;73152;52.198;5.422;2023-11-19T09:16:11;20.80;52.90
17437;DHT22;73152;52.198;5.422;2023-11-19T09:18:41;20.80;53.00
17437;DHT22;73152;52.198;5.422;2023-11-19T09:21:10;20.80;52.90
17437;DHT22;73152;52.198;5.422;2023-11-19T09:23:39;20.80;53.20
17437;DHT22;73152;52.198;5.422;2023-11-19T09:26:09;20.70;53.60
17437;DHT22;73152;52.198;5.422;2023-11-19T09:28:41;20.70;54.30
17437;DHT22;73152;52.198;5.422;2023-11-19T09:31:16;20.70;54.60
17437;DHT22;73152;52.198;5.422;2023-11-19T09:33:45;20.70;54.90
17437;DHT22;73152;52.198;5.422;2023-11-19T09:36:14;20.70;54.90
17437;DHT22;73152;52.198;5.422;2023-11-19T09:38:44;20.70;54.90
17437;DHT22;73152;52.198;5.422;2023-11-19T09:41:13;20.70;55.10
17437;DHT22;73152;52.198;5.422;2023-11-19T09:43:47;20.80;55.80
17437;DHT22;73152;52.198;5.422;2023-11-19T09:46:16;20.80;55.50
17437;DHT22;73152;52.198;5.422;2023-11-19T09:48:46;20.80;55.50
17437;DHT22;73152;52.198;5.422;2023-11-19T09:51:18;20.80;55.50
17437;DHT22;73152;52.198;5.422;2023-11-19T09:53:47;20.80;55.70
17437;DHT22;73152;52.198;5.422;2023-11-19T09:56:16;20.80;56.00
17437;DHT22;73152;52.198;5.422;2023-11-19T09:58:47;20.80;56.40
17437;DHT22;73152;52.198;5.422;2023-11-19T10:01:16;20.80;55.90
17437;DHT22;73152;52.198;5.422;2023-11-19T10:03:46;20.80;55.90
17437;DHT22;73152;52.198;5.422;2023-11-19T10:06:17;20.80;56.00
17437;DHT22;73152;52.198;5.422;2023-11-19T10:08:46;20.80;55.90
17437;DHT22;73152;52.198;5.422;2023-11-19T10:11:15;20.80;56.10
17437;DHT22;73152;52.198;5.422;2023-11-19T10:13:48;20.80;56.00
17437;DHT22;73152;52.198;5.422;2023-11-19T10:16:17;20.80;55.90
17437;DHT22;73152;52.198;5.422;2023-11-19T10:18:47;20.80;55.80
17437;DHT22;73152;52.198;5.422;2023-11-19T10:21:17;20.80;55.70
17437;DHT22;73152;52.198;5.422;2023-11-19T10:23:51;20.80;55.60
17437;DHT22;73152;52.198;5.422;2023-11-19T10:26:23;20.80;55.40
17437;DHT22;73152;52.198;5.422;2023-11-19T10:28:55;20.80;55.60
17437;DHT22;73152;52.198;5.422;2023-11-19T10:31:24;20.80;56.10
17437;DHT22;73152;52.198;5.422;2023-11-19T10:33:53;20.90;55.70
17437;DHT22;73152;52.198;5.422;2023-11-19T10:36:22;20.90;55.60
17437;DHT22;73152;52.198;5.422;2023-11-19T10:39:06;20.90;55.40
17437;DHT22;73152;52.198;5.422;2023-11-19T10:41:35;21.00;55.50
17437;DHT22;73152;52.198;5.422;2023-11-19T10:44:06;21.00;55.40
17437;DHT22;73152;52.198;5.422;2023-11-19T10:46:39;21.00;55.40
17437;DHT22;73152;52.198;5.422;2023-11-19T10:49:09;21.10;55.00
17437;DHT22;73152;52.198;5.422;2023-11-19T10:51:45;21.10;55.10
17437;DHT22;73152;52.198;5.422;2023-11-19T10:54:17;21.10;55.40
17437;DHT22;73152;52.198;5.422;2023-11-19T10:56:51;21.00;56.20
17437;DHT22;73152;52.198;5.422;2023-11-19T10:59:29;20.90;57.20
17437;DHT22;73152;52.198;5.422;2023-11-19T11:02:00;20.90;57.20
17437;DHT22;73152;52.198;5.422;2023-11-19T11:04:39;20.90;57.20
17437;DHT22;73152;52.198;5.422;2023-11-19T11:07:09;21.00;56.90
17437;DHT22;73152;52.198;5.422;2023-11-19T11:09:39;21.00;56.70
17437;DHT22;73152;52.198;5.422;2023-11-19T11:12:10;21.10;56.60
17437;DHT22;73152;52.198;5.422;2023-11-19T11:14:42;21.20;56.40
17437;DHT22;73152;52.198;5.422;2023-11-19T11:17:17;21.20;55.90
17437;DHT22;73152;52.198;5.422;2023-11-19T11:19:46;21.20;55.50
17437;DHT22;73152;52.198;5.422;2023-11-19T11:22:16;21.30;55.30
17437;DHT22;73152;52.198;5.422;2023-11-19T11:25:08;21.30;55.30
17437;DHT22;73152;52.198;5.422;2023-11-19T11:30:56;21.30;55.00
17437;DHT22;73152;52.198;5.422;2023-11-19T11:33:55;21.30;54.80
17437;DHT22;73152;52.198;5.422;2023-11-19T11:36:45;21.30;54.70
17437;DHT22;73152;52.198;5.422;2023-11-19T11:39:22;21.30;54.60
17437;DHT22;73152;52.198;5.422;2023-11-19T11:45:02;21.30;54.60
17437;DHT22;73152;52.198;5.422;2023-11-19T11:50:54;21.40;54.50
17437;DHT22;73152;52.198;5.422;2023-11-19T11:53:26;21.40;54.60
17437;DHT22;73152;52.198;5.422;2023-11-19T11:55:56;21.40;54.30
17437;DHT22;73152;52.198;5.422;2023-11-19T11:58:36;21.40;54.30
17437;DHT22;73152;52.198;5.422;2023-11-19T12:01:07;21.40;54.50
17437;DHT22;73152;52.198;5.422;2023-11-19T12:03:50;21.40;54.30
17437;DHT22;73152;52.198;5.422;2023-11-19T12:06:21;21.40;54.30
17437;DHT22;73152;52.198;5.422;2023-11-19T12:08:50;21.40;54.30
17437;DHT22;73152;52.198;5.422;2023-11-19T12:11:19;21.30;54.30
17437;DHT22;73152;52.198;5.422;2023-11-19T12:13:55;21.30;54.50
17437;DHT22;73152;52.198;5.422;2023-11-19T12:16:28;21.30;54.80
17437;DHT22;73152;52.198;5.422;2023-11-19T12:19:05;21.30;55.10
17437;DHT22;73152;52.198;5.422;2023-11-19T12:21:35;21.30;55.20
17437;DHT22;73152;52.198;5.422;2023-11-19T12:24:06;21.30;55.30
17437;DHT22;73152;52.198;5.422;2023-11-19T12:26:39;21.40;55.30
17437;DHT22;73152;52.198;5.422;2023-11-19T12:29:08;21.40;55.10
17437;DHT22;73152;52.198;5.422;2023-11-19T12:31:37;21.40;55.20
17437;DHT22;73152;52.198;5.422;2023-11-19T12:34:09;21.40;55.30
17437;DHT22;73152;52.198;5.422;2023-11-19T12:36:41;21.50;55.00
17437;DHT22;73152;52.198;5.422;2023-11-19T12:39:10;21.40;55.20
17437;DHT22;73152;52.198;5.422;2023-11-19T12:41:52;21.40;55.50
17437;DHT22;73152;52.198;5.422;2023-11-19T12:44:21;21.40;55.40
17437;DHT22;73152;52.198;5.422;2023-11-19T12:47:01;21.40;55.40
17437;DHT22;73152;52.198;5.422;2023-11-19T12:49:34;21.50;55.30
17437;DHT22;73152;52.198;5.422;2023-11-19T12:52:12;21.50;55.30
17437;DHT22;73152;52.198;5.422;2023-11-19T12:54:41;21.50;54.70
17437;DHT22;73152;52.198;5.422;2023-11-19T12:57:10;21.50;54.60
17437;DHT22;73152;52.198;5.422;2023-11-19T12:59:39;21.50;54.40
17437;DHT22;73152;52.198;5.422;2023-11-19T13:02:08;21.40;54.30
17437;DHT22;73152;52.198;5.422;2023-11-19T13:04:40;21.40;54.30
17437;DHT22;73152;52.198;5.422;2023-11-19T13:07:08;21.50;54.30
17437;DHT22;73152;52.198;5.422;2023-11-19T13:09:37;21.50;54.20
17437;DHT22;73152;52.198;5.422;2023-11-19T13:12:13;21.50;54.00
17437;DHT22;73152;52.198;5.422;2023-11-19T13:14:42;21.40;55.20
17437;DHT22;73152;52.198;5.422;2023-11-19T13:17:13;21.40;55.00
17437;DHT22;73152;52.198;5.422;2023-11-19T13:19:47;21.40;55.00
17437;DHT22;73152;52.198;5.422;2023-11-19T13:22:16;21.40;55.00
17437;DHT22;73152;52.198;5.422;2023-11-19T13:24:45;21.40;55.30
17437;DHT22;73152;52.198;5.422;2023-11-19T13:27:14;21.40;55.40
17437;DHT22;73152;52.198;5.422;2023-11-19T13:29:43;21.40;55.40
17437;DHT22;73152;52.198;5.422;2023-11-19T13:32:11;21.40;55.20
17437;DHT22;73152;52.198;5.422;2023-11-19T13:34:40;21.40;55.10
17437;DHT22;73152;52.198;5.422;2023-11-19T13:37:12;21.40;55.30
17437;DHT22;73152;52.198;5.422;2023-11-19T13:39:42;21.40;55.50
17437;DHT22;73152;52.198;5.422;2023-11-19T13:42:10;21.40;55.90
17437;DHT22;73152;52.198;5.422;2023-11-19T13:44:39;21.40;56.00
17437;DHT22;73152;52.198;5.422;2023-11-19T13:47:09;21.40;56.10
17437;DHT22;73152;52.198;5.422;2023-11-19T13:49:39;21.40;55.90
17437;DHT22;73152;52.198;5.422;2023-11-19T13:52:11;21.40;56.00
17437;DHT22;73152;52.198;5.422;2023-11-19T13:54:40;21.40;56.00
17437;DHT22;73152;52.198;5.422;2023-11-19T13:57:08;21.50;56.00
17437;DHT22;73152;52.198;5.422;2023-11-19T13:59:39;21.50;55.90
17437;DHT22;73152;52.198;5.422;2023-11-19T14:02:08;21.50;56.00
17437;DHT22;73152;52.198;5.422;2023-11-19T14:04:37;21.50;56.00
17437;DHT22;73152;52.198;5.422;2023-11-19T14:07:07;21.50;56.10
17437;DHT22;73152;52.198;5.422;2023-11-19T14:09:38;21.50;56.10
17437;DHT22;73152;52.198;5.422;2023-11-19T14:12:08;21.50;55.80
17437;DHT22;73152;52.198;5.422;2023-11-19T14:14:38;21.50;56.00
17437;DHT22;73152;52.198;5.422;2023-11-19T14:17:07;21.50;55.90
17437;DHT22;73152;52.198;5.422;2023-11-19T14:19:36;21.50;56.10
17437;DHT22;73152;52.198;5.422;2023-11-19T14:22:05;21.50;55.60
17437;DHT22;73152;52.198;5.422;2023-11-19T14:24:34;21.50;55.80
17437;DHT22;73152;52.198;5.422;2023-11-19T14:27:07;21.50;55.70
17437;DHT22;73152;52.198;5.422;2023-11-19T14:29:36;21.50;55.50
17437;DHT22;73152;52.198;5.422;2023-11-19T14:32:06;21.50;55.60
17437;DHT22;73152;52.198;5.422;2023-11-19T14:34:35;21.50;55.80
17437;DHT22;73152;52.198;5.422;2023-11-19T14:37:04;21.50;55.70
17437;DHT22;73152;52.198;5.422;2023-11-19T14:39:33;21.50;56.00
17437;DHT22;73152;52.198;5.422;2023-11-19T14:42:05;21.50;56.10
17437;DHT22;73152;52.198;5.422;2023-11-19T14:44:34;21.50;55.70
17437;DHT22;73152;52.198;5.422;2023-11-19T14:47:03;21.50;56.00
17437;DHT22;73152;52.198;5.422;2023-11-19T14:49:34;21.50;55.90
17437;DHT22;73152;52.198;5.422;2023-11-19T14:52:03;21.50;56.00
17437;DHT22;73152;52.198;5.422;2023-11-19T14:54:33;21.50;55.90
17437;DHT22;73152;52.198;5.422;2023-11-19T14:57:05;21.50;55.90
17437;DHT22;73152;52.198;5.422;2023-11-19T14:59:35;21.50;55.70
17437;DHT22;73152;52.198;5.422;2023-11-19T15:02:04;21.50;55.80
17437;DHT22;73152;52.198;5.422;2023-11-19T15:04:33;21.50;55.70
17437;DHT22;73152;52.198;5.422;2023-11-19T15:07:02;21.40;55.70
17437;DHT22;73152;52.198;5.422;2023-11-19T15:09:32;21.40;56.00
17437;DHT22;73152;52.198;5.422;2023-11-19T15:12:05;21.50;55.80
17437;DHT22;73152;52.198;5.422;2023-11-19T15:14:34;21.50;55.80
17437;DHT22;73152;52.198;5.422;2023-11-19T15:17:03;21.50;55.90
17437;DHT22;73152;52.198;5.422;2023-11-19T15:19:33;21.50;55.80
17437;DHT22;73152;52.198;5.422;2023-11-19T15:22:02;21.50;55.70
17437;DHT22;73152;52.198;5.422;2023-11-19T15:24:31;21.60;55.60
17437;DHT22;73152;52.198;5.422;2023-11-19T15:27:05;21.60;55.60
17437;DHT22;73152;52.198;5.422;2023-11-19T15:29:35;21.60;55.30
17437;DHT22;73152;52.198;5.422;2023-11-19T15:32:05;21.60;55.20
17437;DHT22;73152;52.198;5.422;2023-11-19T15:34:35;21.60;55.40
17437;DHT22;73152;52.198;5.422;2023-11-19T15:37:05;21.60;55.10
17437;DHT22;73152;52.198;5.422;2023-11-19T15:39:34;21.60;55.10
17437;DHT22;73152;52.198;5.422;2023-11-19T15:42:06;21.60;54.80
17437;DHT22;73152;52.198;5.422;2023-11-19T15:44:36;21.60;55.20
17437;DHT22;73152;52.198;5.422;2023-11-19T15:47:05;21.60;55.10
17437;DHT22;73152;52.198;5.422;2023-11-19T15:49:34;21.60;54.90
17437;DHT22;73152;52.198;5.422;2023-11-19T15:52:06;21.60;54.90
17437;DHT22;73152;52.198;5.422;2023-11-19T15:54:35;21.60;54.90
17437;DHT22;73152;52.198;5.422;2023-11-19T15:57:07;21.60;54.90
17437;DHT22;73152;52.198;5.422;2023-11-19T15:59:36;21.60;54.80